createdAt,value
2023-04-23T00:01:49.444Z,69.17
2023-04-23T00:04:19.050Z,69.05
2023-04-23T00:06:47.122Z,69.15
2023-04-23T00:09:15.472Z,69.57
2023-04-23T00:11:42.397Z,69.40
2023-04-23T00:14:09.500Z,69.63
2023-04-23T00:16:36.801Z,69.51
2023-04-23T00:19:03.593Z,69.58
2023-04-23T00:21:31.701Z,69.58
2023-04-23T00:23:58.369Z,69.47
2023-04-23T00:26:24.997Z,69.32
2023-04-23T00:28:51.818Z,69.35
2023-04-23T00:31:18.402Z,69.46
2023-04-23T00:33:49.564Z,69.51
2023-04-23T00:36:16.073Z,69.24
2023-04-23T00:38:44.076Z,69.43
2023-04-23T00:41:11.192Z,69.54
2023-04-23T00:43:37.887Z,69.77
2023-04-23T00:46:06.006Z,70.10
2023-04-23T00:48:34.228Z,69.76
2023-04-23T00:51:03.932Z,69.85
2023-04-23T00:53:30.725Z,70.04
2023-04-23T00:56:00.250Z,69.94
2023-04-23T00:58:26.831Z,70.22
2023-04-23T01:00:53.669Z,70.30
2023-04-23T01:03:21.783Z,70.90
2023-04-23T01:05:48.714Z,70.55
2023-04-23T01:08:17.354Z,70.27
2023-04-23T01:10:49.820Z,70.10
2023-04-23T01:13:17.802Z,69.92
2023-04-23T01:15:45.122Z,69.96
2023-04-23T01:18:12.162Z,70.09
2023-04-23T01:20:39.454Z,70.16
2023-04-23T01:23:07.389Z,70.47
2023-04-23T01:25:34.917Z,70.62
2023-04-23T01:28:02.014Z,70.70
2023-04-23T01:30:30.455Z,71.12
2023-04-23T01:32:57.676Z,71.23
2023-04-23T01:35:25.218Z,71.94
2023-04-23T01:37:53.667Z,71.77
2023-04-23T01:40:21.721Z,71.87
2023-04-23T01:42:48.564Z,72.48
2023-04-23T01:45:15.157Z,72.16
2023-04-23T01:47:41.824Z,72.36
2023-04-23T01:50:09.812Z,72.34
2023-04-23T01:52:36.478Z,72.51
2023-04-23T01:55:03.307Z,72.82
2023-04-23T01:57:31.377Z,73.17
2023-04-23T02:00:03.712Z,73.01
2023-04-23T02:02:30.396Z,73.31
2023-04-23T02:04:58.811Z,73.47
2023-04-23T02:07:25.368Z,73.27
2023-04-23T02:09:52.084Z,73.26
2023-04-23T02:12:18.749Z,73.04
2023-04-23T02:14:46.680Z,72.92
2023-04-23T02:17:13.449Z,73.07
2023-04-23T02:19:40.007Z,73.06
2023-04-23T02:22:06.662Z,73.44
2023-04-23T02:24:33.305Z,73.31
2023-04-23T02:26:59.851Z,73.19
2023-04-23T02:29:26.395Z,73.30
2023-04-23T02:31:54.396Z,74.38
2023-04-23T02:34:21.090Z,74.37
2023-04-23T02:36:47.727Z,74.16
2023-04-23T02:39:14.361Z,74.13
2023-04-23T02:41:41.084Z,74.12
2023-04-23T02:44:07.622Z,74.45
2023-04-23T02:46:36.810Z,74.49
2023-04-23T02:49:04.918Z,74.72
2023-04-23T02:51:31.499Z,74.76
2023-04-23T02:53:58.503Z,74.94
2023-04-23T02:56:25.244Z,75.20
2023-04-23T02:58:51.889Z,75.32
2023-04-23T03:01:18.486Z,75.58
2023-04-23T03:03:45.309Z,75.71
2023-04-23T03:06:13.377Z,75.74
2023-04-23T03:08:39.843Z,75.24
2023-04-23T03:11:06.504Z,74.56
2023-04-23T03:13:33.040Z,74.60
2023-04-23T03:15:59.980Z,74.50
2023-04-23T03:18:26.527Z,73.64
2023-04-23T03:20:53.219Z,74.34
2023-04-23T03:23:21.137Z,74.51
2023-04-23T03:25:47.917Z,74.16
2023-04-23T03:28:14.490Z,73.62
2023-04-23T03:30:41.172Z,73.82
2023-04-23T03:33:07.739Z,73.55
2023-04-23T03:35:34.281Z,73.46
2023-04-23T03:38:01.154Z,73.70
2023-04-23T03:40:29.110Z,73.53
2023-04-23T03:42:55.671Z,73.40
2023-04-23T03:45:22.190Z,73.19
2023-04-23T03:47:48.825Z,73.53
2023-04-23T03:50:15.473Z,73.87
2023-04-23T03:52:41.966Z,73.93
2023-04-23T03:55:09.482Z,74.03
2023-04-23T03:57:37.438Z,73.75
2023-04-23T04:00:05.878Z,74.58
2023-04-23T04:02:32.574Z,74.62
2023-04-23T04:04:59.615Z,75.01
2023-04-23T04:07:26.631Z,75.19
2023-04-23T04:09:53.162Z,75.18
2023-04-23T04:12:19.718Z,75.00
2023-04-23T04:14:47.819Z,75.04
2023-04-23T04:17:14.345Z,75.22
2023-04-23T04:19:40.927Z,75.25
2023-04-23T04:22:07.482Z,76.00
2023-04-23T04:24:34.074Z,75.88
2023-04-23T04:27:01.616Z,76.14
2023-04-23T04:29:28.514Z,75.99
2023-04-23T04:31:56.754Z,75.34
2023-04-23T04:34:23.403Z,75.49
2023-04-23T04:36:49.965Z,75.57
2023-04-23T04:39:16.455Z,76.04
2023-04-23T04:41:43.191Z,75.14
2023-04-23T04:44:09.763Z,75.08
2023-04-23T04:46:36.352Z,74.48
2023-04-23T04:49:04.367Z,74.30
2023-04-23T04:51:30.903Z,73.46
2023-04-23T04:53:57.783Z,72.31
2023-04-23T04:56:24.383Z,70.76
2023-04-23T04:58:50.946Z,69.22
2023-04-23T05:01:17.896Z,65.37
2023-04-23T05:03:44.682Z,62.18
2023-04-23T05:06:12.721Z,58.97
2023-04-23T05:08:39.271Z,56.87
2023-04-23T05:11:05.858Z,55.60
2023-04-23T05:13:32.423Z,55.59
2023-04-23T05:15:59.107Z,58.29
2023-04-23T05:18:25.662Z,61.37
2023-04-23T05:20:52.223Z,62.09
2023-04-23T05:23:20.287Z,63.88
2023-04-23T05:25:46.933Z,64.09
2023-04-23T05:28:13.501Z,64.73
2023-04-23T05:30:40.141Z,64.93
2023-04-23T05:33:06.796Z,64.95
2023-04-23T05:35:33.473Z,65.39
2023-04-23T05:37:59.966Z,65.44
2023-04-23T05:40:28.102Z,64.65
2023-04-23T05:42:55.068Z,65.32
2023-04-23T05:45:22.271Z,65.81
2023-04-23T05:47:48.880Z,65.88
2023-04-23T05:50:15.414Z,65.52
2023-04-23T05:52:41.987Z,65.65
2023-04-23T05:55:09.702Z,66.67
2023-04-23T05:57:38.587Z,66.71
2023-04-23T06:00:06.588Z,66.49
2023-04-23T06:02:33.227Z,66.30
2023-04-23T06:05:01.090Z,65.91
2023-04-23T06:07:27.847Z,66.46
2023-04-23T06:09:54.283Z,66.50
2023-04-23T06:12:20.890Z,66.09
2023-04-23T06:14:48.730Z,65.65
2023-04-23T06:17:15.295Z,66.11
2023-04-23T06:19:41.910Z,65.73
2023-04-23T06:22:08.548Z,66.10
2023-04-23T06:24:35.213Z,64.94
2023-04-23T06:27:01.835Z,64.62
2023-04-23T06:29:28.793Z,63.35
2023-04-23T06:31:57.791Z,63.26
2023-04-23T06:34:24.448Z,62.55
2023-04-23T06:36:51.515Z,61.44
2023-04-23T06:39:18.002Z,60.10
2023-04-23T06:41:44.941Z,59.71
2023-04-23T06:44:11.512Z,58.17
2023-04-23T06:46:38.239Z,57.26
2023-04-23T06:49:06.163Z,56.78
2023-04-23T06:51:32.784Z,55.74
2023-04-23T06:53:59.420Z,54.91
2023-04-23T06:56:25.998Z,54.12
2023-04-23T06:58:53.523Z,53.88
2023-04-23T07:01:20.233Z,53.71
2023-04-23T07:03:47.050Z,54.82
2023-04-23T07:06:15.326Z,54.99
2023-04-23T07:08:43.168Z,55.14
2023-04-23T07:11:09.814Z,55.08
2023-04-23T07:13:36.470Z,54.63
2023-04-23T07:16:03.142Z,54.50
2023-04-23T07:18:29.749Z,53.70
2023-04-23T07:20:56.390Z,52.75
2023-04-23T07:23:24.622Z,52.20
2023-04-23T07:25:52.043Z,52.97
2023-04-23T07:28:21.548Z,53.10
2023-04-23T07:30:48.188Z,52.20
2023-04-23T07:33:15.322Z,52.03
2023-04-23T07:35:41.886Z,52.57
2023-04-23T07:38:08.436Z,52.83
2023-04-23T07:40:36.269Z,52.28
2023-04-23T07:43:02.891Z,51.50
2023-04-23T07:45:29.569Z,51.37
2023-04-23T07:47:56.176Z,50.60
2023-04-23T07:50:22.776Z,50.55
2023-04-23T07:52:49.526Z,50.89
2023-04-23T07:55:16.305Z,49.96
2023-04-23T07:57:44.204Z,50.21
2023-04-23T08:00:11.739Z,49.84
2023-04-23T08:02:38.392Z,49.11
2023-04-23T08:05:06.122Z,49.45
2023-04-23T08:07:33.163Z,49.24
2023-04-23T08:09:59.802Z,48.84
2023-04-23T08:12:27.502Z,48.55
2023-04-23T08:14:55.456Z,49.20
2023-04-23T08:17:22.064Z,49.28
2023-04-23T08:19:48.620Z,49.04
2023-04-23T08:22:15.291Z,47.52
2023-04-23T08:24:42.853Z,47.13
2023-04-23T08:27:09.532Z,46.22
2023-04-23T08:29:36.084Z,45.97
2023-04-23T08:32:04.149Z,47.46
2023-04-23T08:34:30.748Z,47.09
2023-04-23T08:36:57.294Z,45.61
2023-04-23T08:39:23.821Z,45.98
2023-04-23T08:41:55.421Z,45.98
2023-04-23T08:44:23.975Z,44.74
2023-04-23T08:46:52.665Z,45.45
2023-04-23T08:49:22.580Z,45.04
2023-04-23T08:51:52.163Z,45.04
2023-04-23T08:54:24.345Z,44.72
2023-04-23T08:56:54.851Z,45.35
2023-04-23T08:59:21.441Z,45.28
2023-04-23T09:01:48.278Z,45.30
2023-04-23T09:04:15.113Z,44.44
2023-04-23T09:06:43.430Z,44.99
2023-04-23T09:09:10.679Z,44.58
2023-04-23T09:11:37.671Z,44.27
2023-04-23T09:14:04.640Z,43.28
2023-04-23T09:16:31.348Z,44.96
2023-04-23T09:18:59.005Z,45.62
2023-04-23T09:21:25.575Z,44.96
2023-04-23T09:23:53.561Z,45.01
2023-04-23T09:26:20.915Z,44.30
2023-04-23T09:28:50.035Z,43.97
2023-04-23T09:31:20.863Z,43.96
2023-04-23T09:33:54.512Z,44.39
2023-04-23T09:36:24.200Z,44.34
2023-04-23T09:38:51.071Z,44.17
2023-04-23T09:41:22.787Z,45.45
2023-04-23T09:43:49.370Z,44.95
2023-04-23T09:46:16.034Z,45.13
2023-04-23T09:48:43.478Z,45.27
2023-04-23T09:51:16.397Z,44.13
2023-04-23T09:53:43.753Z,44.31
2023-04-23T09:56:10.720Z,43.36
2023-04-23T09:58:38.942Z,41.42
2023-04-23T10:01:07.809Z,41.38
2023-04-23T10:03:34.556Z,41.39
2023-04-23T10:06:02.483Z,41.66
2023-04-23T10:08:31.818Z,41.90
2023-04-23T10:11:13.657Z,41.32
2023-04-23T10:13:46.678Z,41.47
2023-04-23T10:16:22.528Z,41.09
2023-04-23T10:18:52.713Z,40.58
2023-04-23T10:21:19.912Z,39.68
2023-04-23T10:23:49.888Z,39.97
2023-04-23T10:26:16.704Z,39.18
2023-04-23T10:28:50.338Z,38.71
2023-04-23T10:31:19.617Z,39.44
2023-04-23T10:33:58.221Z,38.52
2023-04-23T10:36:26.683Z,38.88
2023-04-23T10:38:58.310Z,38.58
2023-04-23T10:41:33.548Z,38.77
2023-04-23T10:44:01.431Z,38.00
2023-04-23T10:46:28.572Z,38.43
2023-04-23T10:49:05.904Z,38.80
2023-04-23T10:54:08.743Z,38.83
2023-04-23T10:56:35.295Z,39.16
2023-04-23T10:59:06.358Z,38.57
2023-04-23T11:01:33.042Z,38.91
2023-04-23T11:04:00.104Z,39.45
2023-04-23T11:06:51.271Z,38.69
2023-04-23T11:09:32.212Z,38.94
2023-04-23T11:11:59.924Z,40.30
2023-04-23T11:14:41.950Z,39.28
2023-04-23T11:17:11.760Z,37.94
2023-04-23T11:19:39.359Z,36.22
2023-04-23T11:22:07.259Z,35.37
2023-04-23T11:24:35.789Z,33.98
2023-04-23T11:27:05.553Z,32.70
2023-04-23T11:29:32.140Z,32.78
2023-04-23T11:32:03.653Z,33.26
2023-04-23T11:34:32.111Z,33.64
2023-04-23T11:36:59.760Z,36.24
2023-04-23T11:39:26.399Z,36.84
2023-04-23T11:41:53.002Z,37.52
2023-04-23T11:44:21.356Z,37.38
2023-04-23T11:46:48.382Z,36.90
2023-04-23T11:49:17.794Z,34.67
2023-04-23T11:51:45.407Z,35.22
2023-04-23T11:54:12.939Z,34.74
2023-04-23T11:56:40.733Z,34.89
2023-04-23T11:59:08.088Z,34.40
2023-04-23T12:01:45.343Z,34.90
2023-04-23T12:04:13.794Z,34.34
2023-04-23T12:06:43.441Z,33.48
2023-04-23T12:09:10.584Z,33.93
2023-04-23T12:11:37.368Z,34.39
2023-04-23T12:14:04.031Z,34.47
2023-04-23T12:16:34.906Z,34.90
2023-04-23T12:19:01.762Z,34.07
2023-04-23T12:21:28.449Z,34.29
2023-04-23T12:23:57.023Z,35.14
2023-04-23T12:26:25.599Z,34.35
2023-04-23T12:28:53.323Z,33.70
2023-04-23T12:31:20.993Z,32.29
2023-04-23T12:33:47.638Z,32.28
2023-04-23T12:36:15.810Z,32.35
2023-04-23T12:38:42.878Z,31.17
2023-04-23T12:41:10.909Z,32.05
2023-04-23T12:43:37.588Z,31.87
2023-04-23T12:46:04.214Z,31.83
2023-04-23T12:48:30.776Z,32.99
2023-04-23T12:50:57.434Z,31.30
2023-04-23T12:53:23.965Z,31.70
2023-04-23T12:55:50.586Z,32.49
2023-04-23T12:58:18.599Z,33.58
2023-04-23T13:00:45.377Z,34.21
2023-04-23T13:03:12.086Z,33.43
2023-04-23T13:05:38.929Z,33.66
2023-04-23T13:08:05.531Z,33.65
2023-04-23T13:10:32.070Z,32.64
2023-04-23T13:12:58.646Z,33.24
2023-04-23T13:15:27.128Z,33.63
2023-04-23T13:17:54.013Z,33.20
2023-04-23T13:20:20.918Z,32.45
2023-04-23T13:22:47.487Z,33.36
2023-04-23T13:25:14.150Z,33.38
2023-04-23T13:27:40.714Z,33.51
2023-04-23T13:30:08.668Z,32.64
2023-04-23T13:32:36.619Z,32.13
2023-04-23T13:35:03.271Z,32.29
2023-04-23T13:37:48.187Z,32.14
2023-04-23T13:40:16.165Z,32.28
2023-04-23T13:42:42.782Z,32.22
2023-04-23T13:45:10.026Z,32.14
2023-04-23T13:47:37.989Z,31.93
2023-04-23T13:50:05.554Z,32.77
2023-04-23T13:52:32.313Z,32.19
2023-04-23T13:54:58.968Z,32.72
2023-04-23T13:57:26.010Z,32.74
2023-04-23T13:59:52.650Z,32.71
2023-04-23T14:02:19.271Z,33.55
2023-04-23T14:04:47.333Z,32.72
2023-04-23T14:07:13.927Z,32.31
2023-04-23T14:09:40.933Z,31.92
2023-04-23T14:12:07.890Z,32.51
2023-04-23T14:14:34.638Z,31.96
2023-04-23T14:17:01.234Z,31.74
2023-04-23T14:19:27.762Z,32.31
2023-04-23T14:21:55.796Z,32.33
2023-04-23T14:24:27.236Z,31.63
2023-04-23T14:26:56.283Z,31.95
2023-04-23T14:29:30.850Z,31.20
2023-04-23T14:31:58.612Z,31.20
2023-04-23T14:34:25.201Z,31.17
2023-04-23T14:36:52.309Z,31.90
2023-04-23T14:39:21.688Z,32.14
2023-04-23T14:41:48.254Z,32.64
2023-04-23T14:44:14.849Z,32.70
2023-04-23T14:46:41.486Z,33.13
2023-04-23T14:49:08.259Z,33.11
2023-04-23T14:51:34.853Z,32.61
2023-04-23T14:54:01.760Z,31.64
2023-04-23T14:56:29.740Z,32.72
2023-04-23T14:58:56.297Z,32.33
2023-04-23T15:01:23.898Z,32.54
2023-04-23T15:03:52.484Z,30.92
2023-04-23T15:06:19.141Z,31.51
2023-04-23T15:08:45.719Z,31.87
2023-04-23T15:11:12.671Z,31.72
2023-04-23T15:13:44.977Z,35.64
2023-04-23T15:16:44.068Z,37.26
2023-04-23T15:19:12.562Z,39.26
2023-04-23T15:21:39.241Z,38.46
2023-04-23T15:24:05.967Z,39.81
2023-04-23T15:26:32.629Z,41.17
2023-04-23T15:29:00.647Z,41.12
2023-04-23T15:31:27.278Z,41.95
2023-04-23T15:33:54.308Z,43.35
2023-04-23T15:36:20.868Z,44.44
2023-04-23T15:38:47.452Z,45.93
2023-04-23T15:41:14.220Z,45.73
2023-04-23T15:43:40.877Z,45.50
2023-04-23T15:46:08.898Z,48.01
2023-04-23T15:48:35.591Z,48.82
2023-04-23T15:51:02.175Z,49.96
2023-04-23T15:53:28.789Z,50.18
2023-04-23T15:55:55.354Z,50.15
2023-04-23T15:58:21.990Z,51.66
2023-04-23T16:00:48.760Z,52.69
2023-04-23T16:03:16.942Z,54.21
2023-04-23T16:05:43.956Z,55.08
2023-04-23T16:08:10.686Z,55.93
2023-04-23T16:10:38.085Z,55.90
2023-04-23T16:13:04.850Z,57.00
2023-04-23T16:15:32.109Z,57.77
2023-04-23T16:17:58.705Z,58.04
2023-04-23T16:20:27.011Z,58.68
2023-04-23T16:22:53.944Z,57.95
2023-04-23T16:25:21.001Z,57.81
2023-04-23T16:27:48.056Z,58.26
2023-04-23T16:30:14.985Z,58.69
2023-04-23T16:32:41.699Z,58.14
2023-04-23T16:35:09.066Z,59.27
2023-04-23T16:37:37.110Z,59.81
2023-04-23T16:40:04.236Z,60.47
2023-04-23T16:42:30.828Z,61.21
2023-04-23T16:44:57.721Z,61.04
2023-04-23T16:47:24.497Z,61.61
2023-04-23T16:49:51.139Z,61.90
2023-04-23T16:52:17.790Z,63.15
2023-04-23T16:54:45.888Z,63.20
2023-04-23T16:57:12.588Z,64.06
2023-04-23T16:59:39.323Z,64.13
2023-04-23T17:02:06.144Z,64.65
2023-04-23T17:04:32.915Z,64.70
2023-04-23T17:06:59.772Z,64.57
2023-04-23T17:09:26.447Z,64.88
2023-04-23T17:11:54.387Z,65.17
2023-04-23T17:14:21.000Z,66.17
2023-04-23T17:16:47.694Z,66.98
2023-04-23T17:19:14.258Z,66.34
2023-04-23T17:21:40.940Z,66.39
2023-04-23T17:24:07.645Z,66.77
2023-04-23T17:26:34.209Z,66.10
2023-04-23T17:29:02.193Z,66.77
2023-04-23T17:31:29.046Z,66.84
2023-04-23T17:33:57.482Z,67.21
2023-04-23T17:36:24.084Z,67.24
2023-04-23T17:38:50.630Z,66.82
2023-04-23T17:41:17.197Z,67.68
2023-04-23T17:43:43.765Z,67.65
2023-04-23T17:46:12.160Z,67.31
2023-04-23T17:48:38.822Z,67.50
2023-04-23T17:51:05.951Z,67.35
2023-04-23T17:53:32.570Z,67.64
2023-04-23T17:55:59.225Z,67.48
2023-04-23T17:58:25.864Z,67.66
2023-04-23T18:00:52.613Z,67.55
2023-04-23T18:03:20.861Z,67.78
2023-04-23T18:05:48.174Z,67.93
2023-04-23T18:08:14.790Z,68.38
2023-04-23T18:10:41.508Z,68.94
2023-04-23T18:13:08.289Z,68.43
2023-04-23T18:15:35.040Z,68.37
2023-04-23T18:18:01.694Z,68.88
2023-04-23T18:20:29.734Z,68.08
2023-04-23T18:22:56.418Z,68.47
2023-04-23T18:25:22.998Z,68.51
2023-04-23T18:27:49.609Z,67.96
2023-04-23T18:30:16.393Z,68.36
2023-04-23T18:32:48.308Z,68.50
2023-04-23T18:35:15.136Z,67.82
2023-04-23T18:37:48.289Z,68.11
2023-04-23T18:40:14.876Z,68.29
2023-04-23T18:42:41.602Z,68.18
2023-04-23T18:45:08.940Z,68.94
2023-04-23T18:47:38.349Z,68.27
2023-04-23T18:50:09.723Z,68.48
2023-04-23T18:52:36.425Z,68.50
2023-04-23T18:55:06.259Z,68.88
2023-04-23T18:57:32.904Z,68.81
2023-04-23T18:59:59.541Z,68.35
2023-04-23T19:02:35.045Z,68.85
2023-04-23T19:05:02.700Z,68.94
2023-04-23T19:07:29.433Z,68.58
2023-04-23T19:09:56.090Z,69.24
2023-04-23T19:12:24.093Z,69.21
2023-04-23T19:14:50.730Z,70.97
2023-04-23T19:17:18.791Z,70.00
2023-04-23T19:19:45.850Z,69.80
2023-04-23T19:22:12.633Z,70.39
2023-04-23T19:24:39.331Z,70.22
2023-04-23T19:27:06.093Z,70.22
2023-04-23T19:29:34.131Z,70.85
2023-04-23T19:32:01.312Z,71.01
2023-04-23T19:34:28.002Z,71.09
2023-04-23T19:36:54.789Z,71.49
2023-04-23T19:39:21.492Z,72.28
2023-04-23T19:41:48.185Z,72.59
2023-04-23T19:44:14.820Z,71.81
2023-04-23T19:46:42.904Z,72.64
2023-04-23T19:49:09.654Z,73.03
2023-04-23T19:51:36.688Z,72.06
2023-04-23T19:54:03.899Z,72.65
2023-04-23T19:56:30.765Z,72.09
2023-04-23T19:58:57.552Z,71.98
2023-04-23T20:01:24.335Z,71.04
2023-04-23T20:03:52.343Z,72.07
2023-04-23T20:06:18.981Z,72.10
2023-04-23T20:08:45.542Z,71.63
2023-04-23T20:11:12.171Z,71.06
2023-04-23T20:13:38.717Z,70.29
2023-04-23T20:16:05.332Z,69.14
2023-04-23T20:18:31.973Z,68.46
2023-04-23T20:20:59.936Z,68.55
2023-04-23T20:23:26.528Z,67.83
2023-04-23T20:25:53.186Z,67.65
2023-04-23T20:28:19.769Z,66.54
2023-04-23T20:30:46.412Z,65.93
2023-04-23T20:33:13.006Z,65.32
2023-04-23T20:35:39.956Z,65.00
2023-04-23T20:38:07.932Z,64.11
2023-04-23T20:40:34.917Z,64.72
2023-04-23T20:43:01.720Z,64.74
2023-04-23T20:45:28.317Z,64.54
2023-04-23T20:47:54.931Z,64.69
2023-04-23T20:50:21.580Z,65.70
2023-04-23T20:52:48.304Z,65.76
2023-04-23T20:55:16.293Z,66.29
2023-04-23T20:57:43.043Z,66.57
2023-04-23T21:00:10.167Z,65.99
2023-04-23T21:02:37.531Z,65.08
2023-04-23T21:05:05.894Z,64.52
2023-04-23T21:07:32.509Z,64.44
2023-04-23T21:09:59.144Z,63.66
2023-04-23T21:12:27.729Z,63.54
2023-04-23T21:14:55.089Z,63.09
2023-04-23T21:17:21.780Z,62.82
2023-04-23T21:19:48.352Z,63.11
2023-04-23T21:22:14.799Z,64.12
2023-04-23T21:24:41.417Z,63.50
2023-04-23T21:27:09.209Z,62.20
2023-04-23T21:29:37.414Z,62.50
2023-04-23T21:32:04.082Z,61.95
2023-04-23T21:34:30.660Z,60.87
2023-04-23T21:36:57.384Z,59.82
2023-04-23T21:39:23.936Z,59.99
2023-04-23T21:41:50.551Z,59.83
2023-04-23T21:44:17.144Z,59.66
2023-04-23T21:46:45.279Z,60.25
2023-04-23T21:49:11.928Z,59.90
2023-04-23T21:51:38.740Z,60.38
2023-04-23T21:54:05.581Z,60.42
2023-04-23T21:56:32.433Z,60.25
2023-04-23T21:58:59.061Z,59.83
2023-04-23T22:01:25.738Z,60.39
2023-04-23T22:03:53.848Z,60.50
2023-04-23T22:06:20.529Z,60.03
2023-04-23T22:08:47.242Z,59.67
2023-04-23T22:11:13.979Z,59.13
2023-04-23T22:13:40.546Z,59.80
2023-04-23T22:16:20.370Z,59.75
2023-04-23T22:18:55.402Z,59.81
2023-04-23T22:21:22.183Z,59.94
2023-04-23T22:23:48.784Z,59.83
2023-04-23T22:26:15.367Z,60.08
2023-04-23T22:28:43.131Z,60.09
2023-04-23T22:31:09.756Z,58.99
2023-04-23T22:33:36.619Z,59.85
2023-04-23T22:36:05.007Z,60.11
2023-04-23T22:38:32.536Z,59.61
2023-04-23T22:40:59.324Z,59.70
2023-04-23T22:43:25.893Z,59.54
2023-04-23T22:45:52.823Z,59.06
2023-04-23T22:48:19.630Z,59.45
2023-04-23T22:50:46.214Z,59.53
2023-04-23T22:53:14.194Z,59.29
2023-04-23T22:55:40.784Z,59.32
2023-04-23T22:58:07.308Z,58.79
2023-04-23T23:00:34.024Z,58.76
2023-04-23T23:03:00.690Z,58.31
2023-04-23T23:05:27.388Z,58.67
2023-04-23T23:07:53.938Z,58.46
2023-04-23T23:10:22.985Z,59.35
2023-04-23T23:12:49.867Z,58.94
2023-04-23T23:15:16.648Z,58.80
2023-04-23T23:17:43.278Z,58.43
2023-04-23T23:20:10.816Z,59.37
2023-04-23T23:22:38.566Z,59.93
2023-04-23T23:25:06.034Z,59.37
2023-04-23T23:27:33.987Z,59.58
2023-04-23T23:30:00.581Z,59.81
2023-04-23T23:32:27.415Z,60.34
2023-04-23T23:34:53.976Z,60.58
2023-04-23T23:37:20.798Z,60.76
2023-04-23T23:39:47.593Z,61.47
2023-04-23T23:42:14.584Z,61.42
2023-04-23T23:44:42.563Z,61.36
2023-04-23T23:47:09.290Z,60.81
2023-04-23T23:49:35.881Z,60.83
2023-04-23T23:52:02.748Z,61.45
2023-04-23T23:54:29.373Z,61.12
2023-04-23T23:56:56.005Z,61.67
2023-04-23T23:59:22.790Z,62.33
